PWSweather.com
Personal Weather Stations
Station Observations
BALTRELAY
Relay, Baltimore, MD 21227

RelayBaltimore, MD 21227

Lat: 39.24588, Lon: -76.719772

Elevation: 221

Station Type: Davis Vantage Pro2 (6153)

http://www.relayweather.com

Latest ConditionsUpdated 10:50:04 PM GMT Saturday, Feb 28, 2015
Currently Today's Max Today's Min Today's Average
Temperature 26.8°F-2.9°C 29.8°F-1.2°C 15.0°F-9.4°C 21.9°F-5.6°C
Dew Point 7.7°F-13.5°C 12.0°F-11.1°C -0.1°F-17.8°C 4.0°F-15.6°C
Winds 5.5 mph SE8.9 kmh SE 11.5 mph NNW18.5 kmh NNW - 2.8 mph 4.5 kmh
Wind Gusts 5.0 mph8.0 kmh 15.1 mph24.3 kmh - -
Humidity 44% 57% 29% 46%
Pressure 30.73 in1040.6 mb 30.84 in1044.4 mb 30.51 in1033.2 mb -
Hour Temp Dew Point Humidity Winds Wind Gusts Pressure Precip Precip Rate Daily Precip Total
10:50 PM 26.8°F-2.9°C 7.7°F-13.5°C 44% 5.5 mph SE8.9 kmh SE 5.0 mph8.0 kmh 30.73 in1040.6 mb 0.00 in0.0 mm 0.00 in/hr0.0 mm/hr 0.00 in0.0 mm
10:45 PM 27.0°F-2.8°C 7.9°F-13.4°C 44% 5.7 mph S9.2 kmh S 7.1 mph11.4 kmh 30.73 in1040.6 mb 0.00 in0.0 mm 0.00 in/hr0.0 mm/hr 0.00 in0.0 mm
10:40 PM 27.1°F-2.7°C 7.5°F-13.6°C 43% 5.8 mph E9.3 kmh E 7.1 mph11.4 kmh 30.72 in1040.3 mb 0.00 in0.0 mm 0.00 in/hr0.0 mm/hr 0.00 in0.0 mm
10:30 PM 27.6°F-2.4°C 8.0°F-13.3°C 43% 5.6 mph SE9.0 kmh SE 8.1 mph13.0 kmh 30.72 in1040.3 mb 0.00 in0.0 mm 0.00 in/hr0.0 mm/hr 0.00 in0.0 mm
10:20 PM 28.5°F-1.9°C 6.6°F-14.1°C 39% 2.2 mph ENE3.5 kmh ENE 6.1 mph9.8 kmh 30.72 in1040.3 mb 0.00 in0.0 mm 0.00 in/hr0.0 mm/hr 0.00 in0.0 mm
10:15 PM 28.9°F-1.7°C 1.3°F-17.1°C 30% Calm Calm 1.0 mph1.6 kmh 30.72 in1040.3 mb 0.00 in0.0 mm 0.00 in/hr0.0 mm/hr 0.00 in0.0 mm
10:10 PM 29.0°F-1.7°C 1.4°F-17.0°C 30% Calm Calm -- 30.72 in1040.3 mb 0.00 in0.0 mm 0.00 in/hr0.0 mm/hr 0.00 in0.0 mm
10:00 PM 29.3°F-1.5°C 1.6°F-16.9°C 30% Calm Calm -- 30.72 in1040.3 mb 0.00 in0.0 mm 0.00 in/hr0.0 mm/hr 0.00 in0.0 mm
09:50 PM 29.4°F-1.4°C 1.8°F-16.8°C 30% Calm Calm 1.0 mph1.6 kmh 30.73 in1040.6 mb 0.00 in0.0 mm 0.00 in/hr0.0 mm/hr 0.00 in0.0 mm
09:45 PM 29.6°F-1.3°C 2.6°F-16.3°C 31% 3.4 mph WNW5.5 kmh WNW 6.1 mph9.8 kmh 30.73 in1040.6 mb 0.00 in0.0 mm 0.00 in/hr0.0 mm/hr 0.00 in0.0 mm
09:40 PM 29.4°F-1.4°C 1.7°F-16.8°C 30% 0.7 mph SSW1.1 kmh SSW 5.0 mph8.0 kmh 30.73 in1040.6 mb 0.00 in0.0 mm 0.00 in/hr0.0 mm/hr 0.00 in0.0 mm
09:30 PM 29.8°F-1.2°C 2.8°F-16.2°C 31% 0.5 mph SSW0.8 kmh SSW 2.0 mph3.2 kmh 30.72 in1040.3 mb 0.00 in0.0 mm 0.00 in/hr0.0 mm/hr 0.00 in0.0 mm
09:20 PM 29.0°F-1.7°C 1.4°F-17.0°C 30% Calm Calm -- 30.72 in1040.3 mb 0.00 in0.0 mm 0.00 in/hr0.0 mm/hr 0.00 in0.0 mm
09:15 PM 29.5°F-1.4°C 1.8°F-16.8°C 30% 2.2 mph S3.5 kmh S 5.0 mph8.0 kmh 30.72 in1040.3 mb 0.00 in0.0 mm 0.00 in/hr0.0 mm/hr 0.00 in0.0 mm
09:10 PM 29.7°F-1.3°C 2.0°F-16.7°C 30% 0.9 mph SE1.4 kmh SE 5.0 mph8.0 kmh 30.72 in1040.3 mb 0.00 in0.0 mm 0.00 in/hr0.0 mm/hr 0.00 in0.0 mm
09:00 PM 28.9°F-1.7°C 0.6°F-17.4°C 29% Calm Calm -- 30.72 in1040.3 mb 0.00 in0.0 mm 0.00 in/hr0.0 mm/hr 0.00 in0.0 mm
08:50 PM 29.2°F-1.6°C 2.2°F-16.6°C 31% 6.6 mph SE10.6 kmh SE 9.1 mph14.6 kmh 30.72 in1040.3 mb 0.00 in0.0 mm 0.00 in/hr0.0 mm/hr 0.00 in0.0 mm
08:45 PM 29.1°F-1.6°C 1.4°F-17.0°C 30% 4.9 mph NNW7.9 kmh NNW 9.1 mph14.6 kmh 30.72 in1040.3 mb 0.00 in0.0 mm 0.00 in/hr0.0 mm/hr 0.00 in0.0 mm
08:40 PM 29.6°F-1.3°C 3.3°F-15.9°C 32% 5.0 mph S8.0 kmh S 6.1 mph9.8 kmh 30.72 in1040.3 mb 0.00 in0.0 mm 0.00 in/hr0.0 mm/hr 0.00 in0.0 mm
08:30 PM 29.4°F-1.4°C 2.4°F-16.4°C 31% 0.1 mph SE0.2 kmh SE 1.0 mph1.6 kmh 30.72 in1040.3 mb 0.00 in0.0 mm 0.00 in/hr0.0 mm/hr 0.00 in0.0 mm
08:20 PM 29.4°F-1.4°C 3.1°F-16.1°C 32% 0.5 mph NNW0.8 kmh NNW 1.0 mph1.6 kmh 30.72 in1040.3 mb 0.00 in0.0 mm 0.00 in/hr0.0 mm/hr 0.00 in0.0 mm
08:15 PM 29.0°F-1.7°C 3.4°F-15.9°C 33% Calm Calm -- 30.73 in1040.6 mb 0.00 in0.0 mm 0.00 in/hr0.0 mm/hr 0.00 in0.0 mm
08:10 PM 28.5°F-1.9°C 3.0°F-16.1°C 33% Calm Calm 1.0 mph1.6 kmh 30.73 in1040.6 mb 0.00 in0.0 mm 0.00 in/hr0.0 mm/hr 0.00 in0.0 mm
08:00 PM 29.2°F-1.6°C 3.6°F-15.8°C 33% 0.5 mph NNW0.8 kmh NNW 3.0 mph4.8 kmh 30.73 in1040.6 mb 0.00 in0.0 mm 0.00 in/hr0.0 mm/hr 0.00 in0.0 mm
07:50 PM 28.4°F-2.0°C 1.5°F-16.9°C 31% Calm Calm -- 30.73 in1040.6 mb 0.00 in0.0 mm 0.00 in/hr0.0 mm/hr 0.00 in0.0 mm
07:45 PM 28.7°F-1.8°C 3.2°F-16.0°C 33% 0.2 mph NNE0.3 kmh NNE 2.0 mph3.2 kmh 30.74 in1041.0 mb 0.00 in0.0 mm 0.00 in/hr0.0 mm/hr 0.00 in0.0 mm
07:40 PM 28.3°F-2.1°C 2.2°F-16.6°C 32% 0.6 mph NNW1.0 kmh NNW 4.0 mph6.4 kmh 30.74 in1041.0 mb 0.00 in0.0 mm 0.00 in/hr0.0 mm/hr 0.00 in0.0 mm
07:30 PM 28.3°F-2.1°C 2.2°F-16.6°C 32% 0.7 mph N1.1 kmh N 4.0 mph6.4 kmh 30.74 in1041.0 mb 0.00 in0.0 mm 0.00 in/hr0.0 mm/hr 0.00 in0.0 mm
07:20 PM 29.2°F-1.6°C 3.6°F-15.8°C 33% 0.4 mph NNW0.6 kmh NNW 1.0 mph1.6 kmh 30.74 in1041.0 mb 0.00 in0.0 mm 0.00 in/hr0.0 mm/hr 0.00 in0.0 mm
07:15 PM 28.3°F-2.1°C 2.2°F-16.6°C 32% 2.3 mph WNW3.7 kmh WNW 7.1 mph11.4 kmh 30.74 in1041.0 mb 0.00 in0.0 mm 0.00 in/hr0.0 mm/hr 0.00 in0.0 mm
07:10 PM 28.6°F-1.9°C 2.5°F-16.4°C 32% 5.9 mph N9.5 kmh N 8.1 mph13.0 kmh 30.74 in1041.0 mb 0.00 in0.0 mm 0.00 in/hr0.0 mm/hr 0.00 in0.0 mm
07:00 PM 28.5°F-1.9°C 3.0°F-16.1°C 33% Calm Calm -- 30.74 in1041.0 mb 0.00 in0.0 mm 0.00 in/hr0.0 mm/hr 0.00 in0.0 mm
06:50 PM 29.0°F-1.7°C 4.7°F-15.2°C 35% 0.2 mph W0.3 kmh W -- 30.75 in1041.3 mb 0.00 in0.0 mm 0.00 in/hr0.0 mm/hr 0.00 in0.0 mm
06:45 PM 28.6°F-1.9°C 5.0°F-15.0°C 36% 0.6 mph NNW1.0 kmh NNW 4.0 mph6.4 kmh 30.75 in1041.3 mb 0.00 in0.0 mm 0.00 in/hr0.0 mm/hr 0.00 in0.0 mm
06:40 PM 28.6°F-1.9°C 4.9°F-15.1°C 36% Calm Calm -- 30.75 in1041.3 mb 0.00 in0.0 mm 0.00 in/hr0.0 mm/hr 0.00 in0.0 mm
06:30 PM 28.3°F-2.1°C 4.7°F-15.2°C 36% 0.6 mph NNW1.0 kmh NNW 2.0 mph3.2 kmh 30.76 in1041.7 mb 0.00 in0.0 mm 0.00 in/hr0.0 mm/hr 0.00 in0.0 mm
06:20 PM 26.7°F-2.9°C 2.6°F-16.3°C 35% Calm Calm -- 30.77 in1042.0 mb 0.00 in0.0 mm 0.00 in/hr0.0 mm/hr 0.00 in0.0 mm
06:15 PM 26.2°F-3.2°C 1.6°F-16.9°C 34% 0.5 mph W0.8 kmh W 6.1 mph9.8 kmh 30.77 in1042.0 mb 0.00 in0.0 mm 0.00 in/hr0.0 mm/hr 0.00 in0.0 mm
06:10 PM 28.1°F-2.2°C 3.9°F-15.6°C 35% 0.1 mph SW0.2 kmh SW 3.0 mph4.8 kmh 30.77 in1042.0 mb 0.00 in0.0 mm 0.00 in/hr0.0 mm/hr 0.00 in0.0 mm
06:00 PM 27.1°F-2.7°C 3.0°F-16.1°C 35% 3.5 mph W5.6 kmh W 5.0 mph8.0 kmh 30.78 in1042.3 mb 0.00 in0.0 mm 0.00 in/hr0.0 mm/hr 0.00 in0.0 mm
05:50 PM 27.8°F-2.3°C 4.9°F-15.1°C 37% 5.3 mph N8.5 kmh N 7.1 mph11.4 kmh 30.78 in1042.3 mb 0.00 in0.0 mm 0.00 in/hr0.0 mm/hr 0.00 in0.0 mm
05:45 PM 27.0°F-2.8°C 4.8°F-15.1°C 38% 1.4 mph SW2.3 kmh SW 3.0 mph4.8 kmh 30.79 in1042.7 mb 0.00 in0.0 mm 0.00 in/hr0.0 mm/hr 0.00 in0.0 mm
05:40 PM 25.8°F-3.4°C 3.7°F-15.7°C 38% 0.2 mph WNW0.3 kmh WNW 4.0 mph6.4 kmh 30.79 in1042.7 mb 0.00 in0.0 mm 0.00 in/hr0.0 mm/hr 0.00 in0.0 mm
05:30 PM 27.0°F-2.8°C 5.8°F-14.6°C 40% 3.5 mph W5.6 kmh W 5.0 mph8.0 kmh 30.79 in1042.7 mb 0.00 in0.0 mm 0.00 in/hr0.0 mm/hr 0.00 in0.0 mm
05:20 PM 25.9°F-3.4°C 3.2°F-16.0°C 37% 2.5 mph SW4.0 kmh SW 5.0 mph8.0 kmh 30.80 in1043.0 mb 0.00 in0.0 mm 0.00 in/hr0.0 mm/hr 0.00 in0.0 mm
05:15 PM 26.8°F-2.9°C 6.2°F-14.3°C 41% 1.0 mph SW1.6 kmh SW 5.0 mph8.0 kmh 30.80 in1043.0 mb 0.00 in0.0 mm 0.00 in/hr0.0 mm/hr 0.00 in0.0 mm
05:10 PM 24.4°F-4.2°C 2.9°F-16.2°C 39% 0.4 mph NNW0.6 kmh NNW -- 30.80 in1043.0 mb 0.00 in0.0 mm 0.00 in/hr0.0 mm/hr 0.00 in0.0 mm
05:00 PM 25.1°F-3.8°C 3.6°F-15.8°C 39% 2.9 mph W4.7 kmh W 6.1 mph9.8 kmh 30.80 in1043.0 mb 0.00 in0.0 mm 0.00 in/hr0.0 mm/hr 0.00 in0.0 mm
04:50 PM 24.3°F-4.3°C 2.8°F-16.2°C 39% 4.1 mph W6.6 kmh W 7.1 mph11.4 kmh 30.81 in1043.3 mb 0.00 in0.0 mm 0.00 in/hr0.0 mm/hr 0.00 in0.0 mm
04:45 PM 23.7°F-4.6°C 2.3°F-16.5°C 39% 2.0 mph NNW3.2 kmh NNW 3.0 mph4.8 kmh 30.81 in1043.3 mb 0.00 in0.0 mm 0.00 in/hr0.0 mm/hr 0.00 in0.0 mm
04:40 PM 23.9°F-4.5°C 1.9°F-16.7°C 38% Calm Calm -- 30.82 in1043.7 mb 0.00 in0.0 mm 0.00 in/hr0.0 mm/hr 0.00 in0.0 mm
04:30 PM 23.8°F-4.6°C 1.8°F-16.8°C 38% 0.2 mph WSW0.3 kmh WSW -- 30.82 in1043.7 mb 0.00 in0.0 mm 0.00 in/hr0.0 mm/hr 0.00 in0.0 mm
04:20 PM 23.4°F-4.8°C 3.1°F-16.1°C 41% 1.2 mph NW1.9 kmh NW 4.0 mph6.4 kmh 30.82 in1043.7 mb 0.00 in0.0 mm 0.00 in/hr0.0 mm/hr 0.00 in0.0 mm
04:15 PM 24.3°F-4.3°C 2.9°F-16.2°C 39% Calm Calm -- 30.82 in1043.7 mb 0.00 in0.0 mm 0.00 in/hr0.0 mm/hr 0.00 in0.0 mm
04:10 PM 24.5°F-4.2°C 4.1°F-15.5°C 41% 1.0 mph WSW1.6 kmh WSW 2.0 mph3.2 kmh 30.83 in1044.0 mb 0.00 in0.0 mm 0.00 in/hr0.0 mm/hr 0.00 in0.0 mm
04:00 PM 22.3°F-5.4°C 2.1°F-16.6°C 41% 3.7 mph N6.0 kmh N 5.0 mph8.0 kmh 30.83 in1044.0 mb 0.00 in0.0 mm 0.00 in/hr0.0 mm/hr 0.00 in0.0 mm
03:50 PM 23.0°F-5.0°C 3.3°F-15.9°C 42% 2.6 mph NNW4.2 kmh NNW 5.0 mph8.0 kmh 30.83 in1044.0 mb 0.00 in0.0 mm 0.00 in/hr0.0 mm/hr 0.00 in0.0 mm
03:45 PM 21.4°F-5.9°C 1.9°F-16.7°C 42% 0.1 mph W0.2 kmh W 2.0 mph3.2 kmh 30.83 in1044.0 mb 0.00 in0.0 mm 0.00 in/hr0.0 mm/hr 0.00 in0.0 mm
03:40 PM 21.0°F-6.1°C 1.4°F-17.0°C 42% Calm Calm -- 30.83 in1044.0 mb 0.00 in0.0 mm 0.00 in/hr0.0 mm/hr 0.00 in0.0 mm
03:30 PM 20.5°F-6.4°C -0.1°F-17.8°C 40% Calm Calm -- 30.84 in1044.4 mb 0.00 in0.0 mm 0.00 in/hr0.0 mm/hr 0.00 in0.0 mm
03:20 PM 21.4°F-5.9°C 1.8°F-16.8°C 42% Calm Calm -- 30.84 in1044.4 mb 0.00 in0.0 mm 0.00 in/hr0.0 mm/hr 0.00 in0.0 mm
03:15 PM 21.1°F-6.1°C 1.6°F-16.9°C 42% Calm Calm -- 30.83 in1044.0 mb 0.00 in0.0 mm 0.00 in/hr0.0 mm/hr 0.00 in0.0 mm
03:10 PM 20.2°F-6.6°C 0.8°F-17.3°C 42% Calm Calm 1.0 mph1.6 kmh 30.83 in1044.0 mb 0.00 in0.0 mm 0.00 in/hr0.0 mm/hr 0.00 in0.0 mm
03:00 PM 20.2°F-6.6°C 0.7°F-17.4°C 42% 0.1 mph NE0.2 kmh NE -- 30.83 in1044.0 mb 0.00 in0.0 mm 0.00 in/hr0.0 mm/hr 0.00 in0.0 mm
02:50 PM 20.2°F-6.6°C 1.2°F-17.1°C 43% 0.3 mph NE0.5 kmh NE -- 30.83 in1044.0 mb 0.00 in0.0 mm 0.00 in/hr0.0 mm/hr 0.00 in0.0 mm
02:45 PM 20.5°F-6.4°C 1.5°F-16.9°C 43% 5.2 mph NNE8.4 kmh NNE 7.1 mph11.4 kmh 30.83 in1044.0 mb 0.00 in0.0 mm 0.00 in/hr0.0 mm/hr 0.00 in0.0 mm
02:40 PM 19.7°F-6.8°C 0.8°F-17.3°C 43% 3.8 mph N6.1 kmh N 5.0 mph8.0 kmh 30.82 in1043.7 mb 0.00 in0.0 mm 0.00 in/hr0.0 mm/hr 0.00 in0.0 mm
02:30 PM 19.5°F-6.9°C 1.1°F-17.2°C 44% 0.4 mph N0.6 kmh N 2.0 mph3.2 kmh 30.83 in1044.0 mb 0.00 in0.0 mm 0.00 in/hr0.0 mm/hr 0.00 in0.0 mm
02:20 PM 19.2°F-7.1°C 1.3°F-17.1°C 45% 5.0 mph N8.0 kmh N 7.1 mph11.4 kmh 30.82 in1043.7 mb 0.00 in0.0 mm 0.00 in/hr0.0 mm/hr 0.00 in0.0 mm
02:15 PM 19.1°F-7.2°C 1.7°F-16.8°C 46% 2.6 mph N4.2 kmh N 4.0 mph6.4 kmh 30.82 in1043.7 mb 0.00 in0.0 mm 0.00 in/hr0.0 mm/hr 0.00 in0.0 mm
02:10 PM 19.2°F-7.1°C 1.7°F-16.8°C 46% 5.7 mph NNE9.2 kmh NNE 8.1 mph13.0 kmh 30.82 in1043.7 mb 0.00 in0.0 mm 0.00 in/hr0.0 mm/hr 0.00 in0.0 mm
02:00 PM 19.3°F-7.1°C 2.8°F-16.2°C 48% 3.5 mph N5.6 kmh N 6.1 mph9.8 kmh 30.82 in1043.7 mb 0.00 in0.0 mm 0.00 in/hr0.0 mm/hr 0.00 in0.0 mm
01:50 PM 18.4°F-7.6°C 2.0°F-16.7°C 48% 0.8 mph N1.3 kmh N 4.0 mph6.4 kmh 30.82 in1043.7 mb 0.00 in0.0 mm 0.00 in/hr0.0 mm/hr 0.00 in0.0 mm
01:45 PM 18.4°F-7.6°C 2.9°F-16.2°C 50% 2.9 mph N4.7 kmh N 5.0 mph8.0 kmh 30.81 in1043.3 mb 0.00 in0.0 mm 0.00 in/hr0.0 mm/hr 0.00 in0.0 mm
01:40 PM 18.0°F-7.8°C 2.0°F-16.7°C 49% 2.2 mph NNW3.5 kmh NNW 4.0 mph6.4 kmh 30.81 in1043.3 mb 0.00 in0.0 mm 0.00 in/hr0.0 mm/hr 0.00 in0.0 mm
01:30 PM 18.1°F-7.7°C 2.6°F-16.3°C 50% Calm Calm -- 30.82 in1043.7 mb 0.00 in0.0 mm 0.00 in/hr0.0 mm/hr 0.00 in0.0 mm
01:20 PM 17.8°F-7.9°C 2.3°F-16.5°C 50% 0.1 mph NNE0.2 kmh NNE 3.0 mph4.8 kmh 30.81 in1043.3 mb 0.00 in0.0 mm 0.00 in/hr0.0 mm/hr 0.00 in0.0 mm
01:15 PM 17.6°F-8.0°C 2.5°F-16.4°C 51% 0.7 mph NNW1.1 kmh NNW 2.0 mph3.2 kmh 30.81 in1043.3 mb 0.00 in0.0 mm 0.00 in/hr0.0 mm/hr 0.00 in0.0 mm
01:10 PM 17.3°F-8.2°C 2.3°F-16.5°C 51% 2.4 mph N3.9 kmh N 4.0 mph6.4 kmh 30.80 in1043.0 mb 0.00 in0.0 mm 0.00 in/hr0.0 mm/hr 0.00 in0.0 mm
01:00 PM 16.6°F-8.6°C 2.0°F-16.7°C 52% 5.3 mph 8.5 kmh 7.1 mph11.4 kmh 30.80 in1043.0 mb 0.00 in0.0 mm 0.00 in/hr0.0 mm/hr 0.00 in0.0 mm
12:50 PM 16.4°F-8.7°C 1.4°F-17.0°C 51% 4.0 mph N6.4 kmh N 6.1 mph9.8 kmh 30.79 in1042.7 mb 0.00 in0.0 mm 0.00 in/hr0.0 mm/hr 0.00 in0.0 mm
12:45 PM 16.6°F-8.6°C 2.0°F-16.7°C 52% 4.2 mph N6.8 kmh N 8.1 mph13.0 kmh 30.79 in1042.7 mb 0.00 in0.0 mm 0.00 in/hr0.0 mm/hr 0.00 in0.0 mm
12:40 PM 16.6°F-8.6°C 2.0°F-16.7°C 52% 2.6 mph NNW4.2 kmh NNW 5.0 mph8.0 kmh 30.78 in1042.3 mb 0.00 in0.0 mm 0.00 in/hr0.0 mm/hr 0.00 in0.0 mm
12:30 PM 16.2°F-8.8°C 2.4°F-16.4°C 54% 2.3 mph N3.7 kmh N 6.1 mph9.8 kmh 30.78 in1042.3 mb 0.00 in0.0 mm 0.00 in/hr0.0 mm/hr 0.00 in0.0 mm
12:20 PM 15.8°F-9.0°C 1.6°F-16.9°C 53% 1.8 mph NNW2.9 kmh NNW 5.0 mph8.0 kmh 30.77 in1042.0 mb 0.00 in0.0 mm 0.00 in/hr0.0 mm/hr 0.00 in0.0 mm
12:15 PM 15.7°F-9.1°C 2.0°F-16.7°C 54% 3.6 mph N5.8 kmh N 5.0 mph8.0 kmh 30.77 in1042.0 mb 0.00 in0.0 mm 0.00 in/hr0.0 mm/hr 0.00 in0.0 mm
12:10 PM 15.4°F-9.2°C 1.7°F-16.8°C 54% 2.8 mph N4.5 kmh N 6.1 mph9.8 kmh 30.77 in1042.0 mb 0.00 in0.0 mm 0.00 in/hr0.0 mm/hr 0.00 in0.0 mm
12:00 PM 15.1°F-9.4°C 1.8°F-16.8°C 55% 1.4 mph NNW2.3 kmh NNW 4.0 mph6.4 kmh 30.77 in1042.0 mb 0.00 in0.0 mm 0.00 in/hr0.0 mm/hr 0.00 in0.0 mm
11:50 AM 15.1°F-9.4°C 1.8°F-16.8°C 55% Calm Calm -- 30.77 in1042.0 mb 0.00 in0.0 mm 0.00 in/hr0.0 mm/hr 0.00 in0.0 mm
11:45 AM 15.0°F-9.4°C 1.7°F-16.8°C 55% 3.0 mph NNW4.8 kmh NNW 5.0 mph8.0 kmh 30.77 in1042.0 mb 0.00 in0.0 mm 0.00 in/hr0.0 mm/hr 0.00 in0.0 mm
11:40 AM 15.1°F-9.4°C 1.4°F-17.0°C 54% 0.2 mph NW0.3 kmh NW 1.0 mph1.6 kmh 30.76 in1041.7 mb 0.00 in0.0 mm 0.00 in/hr0.0 mm/hr 0.00 in0.0 mm
11:30 AM 15.0°F-9.4°C 1.3°F-17.1°C 54% 1.2 mph NW1.9 kmh NW 3.0 mph4.8 kmh 30.77 in1042.0 mb 0.00 in0.0 mm 0.00 in/hr0.0 mm/hr 0.00 in0.0 mm
11:20 AM 15.2°F-9.3°C 1.5°F-16.9°C 54% 2.0 mph NNW3.2 kmh NNW 7.1 mph11.4 kmh 30.76 in1041.7 mb 0.00 in0.0 mm 0.00 in/hr0.0 mm/hr 0.00 in0.0 mm
11:15 AM 15.2°F-9.3°C 1.5°F-16.9°C 54% 4.4 mph NNW7.1 kmh NNW 7.1 mph11.4 kmh 30.76 in1041.7 mb 0.00 in0.0 mm 0.00 in/hr0.0 mm/hr 0.00 in0.0 mm
11:10 AM 15.3°F-9.3°C 1.6°F-16.9°C 54% 3.2 mph NW5.1 kmh NW 6.1 mph9.8 kmh 30.76 in1041.7 mb 0.00 in0.0 mm 0.00 in/hr0.0 mm/hr 0.00 in0.0 mm
11:00 AM 15.5°F-9.2°C 1.4°F-17.0°C 53% 2.5 mph NW4.0 kmh NW 5.0 mph8.0 kmh 30.75 in1041.3 mb 0.00 in0.0 mm 0.00 in/hr0.0 mm/hr 0.00 in0.0 mm
10:50 AM 15.5°F-9.2°C 1.4°F-17.0°C 53% 3.9 mph NW6.3 kmh NW 11.1 mph17.9 kmh 30.75 in1041.3 mb 0.00 in0.0 mm 0.00 in/hr0.0 mm/hr 0.00 in0.0 mm
10:45 AM 15.7°F-9.1°C 1.6°F-16.9°C 53% 0.8 mph NW1.3 kmh NW 3.0 mph4.8 kmh 30.74 in1041.0 mb 0.00 in0.0 mm 0.00 in/hr0.0 mm/hr 0.00 in0.0 mm
10:40 AM 15.8°F-9.0°C 1.6°F-16.9°C 53% 5.3 mph NW8.5 kmh NW 7.1 mph11.4 kmh 30.74 in1041.0 mb 0.00 in0.0 mm 0.00 in/hr0.0 mm/hr 0.00 in0.0 mm
10:30 AM 16.0°F-8.9°C 1.8°F-16.8°C 53% 0.7 mph NNW1.1 kmh NNW 3.0 mph4.8 kmh 30.74 in1041.0 mb 0.00 in0.0 mm 0.00 in/hr0.0 mm/hr 0.00 in0.0 mm
10:20 AM 16.0°F-8.9°C 1.5°F-16.9°C 52% 1.4 mph NNW2.3 kmh NNW 4.0 mph6.4 kmh 30.73 in1040.6 mb 0.00 in0.0 mm 0.00 in/hr0.0 mm/hr 0.00 in0.0 mm
10:15 AM 16.2°F-8.8°C 1.6°F-16.9°C 52% 2.3 mph NW3.7 kmh NW 4.0 mph6.4 kmh 30.73 in1040.6 mb 0.00 in0.0 mm 0.00 in/hr0.0 mm/hr 0.00 in0.0 mm
10:10 AM 16.2°F-8.8°C 1.6°F-16.9°C 52% 4.7 mph NNW7.6 kmh NNW 5.0 mph8.0 kmh 30.73 in1040.6 mb 0.00 in0.0 mm 0.00 in/hr0.0 mm/hr 0.00 in0.0 mm
10:00 AM 16.1°F-8.8°C 2.0°F-16.7°C 53% 3.1 mph NW5.0 kmh NW 6.1 mph9.8 kmh 30.72 in1040.3 mb 0.00 in0.0 mm 0.00 in/hr0.0 mm/hr 0.00 in0.0 mm
09:50 AM 16.1°F-8.8°C 1.9°F-16.7°C 53% 5.4 mph NW8.7 kmh NW 10.1 mph16.3 kmh 30.72 in1040.3 mb 0.00 in0.0 mm 0.00 in/hr0.0 mm/hr 0.00 in0.0 mm
09:45 AM 16.1°F-8.8°C 2.0°F-16.7°C 53% 4.1 mph NW6.6 kmh NW 6.1 mph9.8 kmh 30.71 in1040.0 mb 0.00 in0.0 mm 0.00 in/hr0.0 mm/hr 0.00 in0.0 mm
09:40 AM 16.1°F-8.8°C 1.5°F-16.9°C 52% 6.2 mph WNW10.0 kmh WNW 8.1 mph13.0 kmh 30.71 in1040.0 mb 0.00 in0.0 mm 0.00 in/hr0.0 mm/hr 0.00 in0.0 mm
09:30 AM 16.2°F-8.8°C 1.6°F-16.9°C 52% 5.7 mph NW9.2 kmh NW 7.1 mph11.4 kmh 30.71 in1040.0 mb 0.00 in0.0 mm 0.00 in/hr0.0 mm/hr 0.00 in0.0 mm
09:20 AM 16.3°F-8.7°C 1.7°F-16.8°C 52% 4.8 mph NW7.7 kmh NW 7.1 mph11.4 kmh 30.71 in1040.0 mb 0.00 in0.0 mm 0.00 in/hr0.0 mm/hr 0.00 in0.0 mm
09:15 AM 16.4°F-8.7°C 1.8°F-16.8°C 52% 3.3 mph NNW5.3 kmh NNW 5.0 mph8.0 kmh 30.71 in1040.0 mb 0.00 in0.0 mm 0.00 in/hr0.0 mm/hr 0.00 in0.0 mm
09:10 AM 16.4°F-8.7°C 1.8°F-16.8°C 52% 1.9 mph WNW3.1 kmh WNW 5.0 mph8.0 kmh 30.71 in1040.0 mb 0.00 in0.0 mm 0.00 in/hr0.0 mm/hr 0.00 in0.0 mm
09:00 AM 16.6°F-8.6°C 2.0°F-16.7°C 52% 2.9 mph NW4.7 kmh NW 4.0 mph6.4 kmh 30.70 in1039.6 mb 0.00 in0.0 mm 0.00 in/hr0.0 mm/hr 0.00 in0.0 mm
08:50 AM 16.7°F-8.5°C 2.1°F-16.6°C 52% 5.4 mph NNW8.7 kmh NNW 6.1 mph9.8 kmh 30.70 in1039.6 mb 0.00 in0.0 mm 0.00 in/hr0.0 mm/hr 0.00 in0.0 mm
08:45 AM 16.8°F-8.4°C 2.2°F-16.6°C 52% Calm Calm 1.0 mph1.6 kmh 30.69 in1039.3 mb 0.00 in0.0 mm 0.00 in/hr0.0 mm/hr 0.00 in0.0 mm
08:40 AM 16.8°F-8.4°C 2.2°F-16.6°C 52% 1.8 mph WNW2.9 kmh WNW 7.1 mph11.4 kmh 30.69 in1039.3 mb 0.00 in0.0 mm 0.00 in/hr0.0 mm/hr 0.00 in0.0 mm
08:30 AM 16.8°F-8.4°C 2.2°F-16.6°C 52% 4.5 mph NNW7.2 kmh NNW 7.1 mph11.4 kmh 30.68 in1038.9 mb 0.00 in0.0 mm 0.00 in/hr0.0 mm/hr 0.00 in0.0 mm
08:20 AM 16.8°F-8.4°C 2.6°F-16.3°C 53% 5.4 mph NW8.7 kmh NW 11.1 mph17.9 kmh 30.68 in1038.9 mb 0.00 in0.0 mm 0.00 in/hr0.0 mm/hr 0.00 in0.0 mm
08:15 AM 16.8°F-8.4°C 2.6°F-16.3°C 53% 1.2 mph WNW1.9 kmh WNW 4.0 mph6.4 kmh 30.68 in1038.9 mb 0.00 in0.0 mm 0.00 in/hr0.0 mm/hr 0.00 in0.0 mm
08:10 AM 16.8°F-8.4°C 2.6°F-16.3°C 53% 5.7 mph WNW9.2 kmh WNW 10.1 mph16.3 kmh 30.68 in1038.9 mb 0.00 in0.0 mm 0.00 in/hr0.0 mm/hr 0.00 in0.0 mm
08:00 AM 16.9°F-8.4°C 3.1°F-16.1°C 54% 1.5 mph W2.4 kmh W 7.1 mph11.4 kmh 30.68 in1038.9 mb 0.00 in0.0 mm 0.00 in/hr0.0 mm/hr 0.00 in0.0 mm
07:50 AM 17.1°F-8.3°C 2.9°F-16.2°C 53% Calm Calm -- 30.67 in1038.6 mb 0.00 in0.0 mm 0.00 in/hr0.0 mm/hr 0.00 in0.0 mm
07:45 AM 17.1°F-8.3°C 2.9°F-16.2°C 53% Calm Calm -- 30.68 in1038.9 mb 0.00 in0.0 mm 0.00 in/hr0.0 mm/hr 0.00 in0.0 mm
07:40 AM 17.1°F-8.3°C 3.3°F-15.9°C 54% Calm Calm -- 30.67 in1038.6 mb 0.00 in0.0 mm 0.00 in/hr0.0 mm/hr 0.00 in0.0 mm
07:30 AM 17.4°F-8.1°C 3.6°F-15.8°C 54% Calm Calm -- 30.68 in1038.9 mb 0.00 in0.0 mm 0.00 in/hr0.0 mm/hr 0.00 in0.0 mm
07:20 AM 17.5°F-8.1°C 2.8°F-16.2°C 52% Calm Calm -- 30.67 in1038.6 mb 0.00 in0.0 mm 0.00 in/hr0.0 mm/hr 0.00 in0.0 mm
07:15 AM 17.6°F-8.0°C 3.3°F-15.9°C 53% Calm Calm 1.0 mph1.6 kmh 30.67 in1038.6 mb 0.00 in0.0 mm 0.00 in/hr0.0 mm/hr 0.00 in0.0 mm
07:10 AM 17.7°F-7.9°C 3.4°F-15.9°C 53% Calm Calm -- 30.67 in1038.6 mb 0.00 in0.0 mm 0.00 in/hr0.0 mm/hr 0.00 in0.0 mm
07:00 AM 17.8°F-7.9°C 3.5°F-15.8°C 53% Calm Calm -- 30.67 in1038.6 mb 0.00 in0.0 mm 0.00 in/hr0.0 mm/hr 0.00 in0.0 mm
06:50 AM 18.1°F-7.7°C 3.4°F-15.9°C 52% Calm Calm -- 30.66 in1038.3 mb 0.00 in0.0 mm 0.00 in/hr0.0 mm/hr 0.00 in0.0 mm
06:45 AM 18.2°F-7.7°C 3.9°F-15.6°C 53% Calm Calm -- 30.66 in1038.3 mb 0.00 in0.0 mm 0.00 in/hr0.0 mm/hr 0.00 in0.0 mm
06:40 AM 18.1°F-7.7°C 3.4°F-15.9°C 52% 0.1 mph NW0.2 kmh NW -- 30.66 in1038.3 mb 0.00 in0.0 mm 0.00 in/hr0.0 mm/hr 0.00 in0.0 mm
06:30 AM 18.3°F-7.6°C 3.6°F-15.8°C 52% 1.2 mph NW1.9 kmh NW 4.0 mph6.4 kmh 30.65 in1037.9 mb 0.00 in0.0 mm 0.00 in/hr0.0 mm/hr 0.00 in0.0 mm
06:20 AM 18.5°F-7.5°C 3.8°F-15.7°C 52% 2.4 mph W3.9 kmh W 4.0 mph6.4 kmh 30.65 in1037.9 mb 0.00 in0.0 mm 0.00 in/hr0.0 mm/hr 0.00 in0.0 mm
06:15 AM 18.6°F-7.4°C 3.9°F-15.6°C 52% 2.6 mph NNW4.2 kmh NNW 6.1 mph9.8 kmh 30.65 in1037.9 mb 0.00 in0.0 mm 0.00 in/hr0.0 mm/hr 0.00 in0.0 mm
06:10 AM 18.6°F-7.4°C 3.9°F-15.6°C 52% 4.3 mph NW6.9 kmh NW 9.1 mph14.6 kmh 30.65 in1037.9 mb 0.00 in0.0 mm 0.00 in/hr0.0 mm/hr 0.00 in0.0 mm
06:00 AM 18.8°F-7.3°C 4.0°F-15.6°C 52% 7.0 mph NNW11.3 kmh NNW 9.1 mph14.6 kmh 30.65 in1037.9 mb 0.00 in0.0 mm 0.00 in/hr0.0 mm/hr 0.00 in0.0 mm
05:50 AM 19.0°F-7.2°C 4.2°F-15.4°C 52% 6.4 mph W10.3 kmh W 7.1 mph11.4 kmh 30.64 in1037.6 mb 0.00 in0.0 mm 0.00 in/hr0.0 mm/hr 0.00 in0.0 mm
05:45 AM 19.1°F-7.2°C 4.3°F-15.4°C 52% 5.6 mph W9.0 kmh W 10.1 mph16.3 kmh 30.64 in1037.6 mb 0.00 in0.0 mm 0.00 in/hr0.0 mm/hr 0.00 in0.0 mm
05:40 AM 19.1°F-7.2°C 4.3°F-15.4°C 52% 8.4 mph NW13.5 kmh NW 11.1 mph17.9 kmh 30.64 in1037.6 mb 0.00 in0.0 mm 0.00 in/hr0.0 mm/hr 0.00 in0.0 mm
05:30 AM 19.2°F-7.1°C 4.4°F-15.3°C 52% 4.6 mph NW7.4 kmh NW 15.1 mph24.3 kmh 30.63 in1037.3 mb 0.00 in0.0 mm 0.00 in/hr0.0 mm/hr 0.00 in0.0 mm
05:20 AM 19.4°F-7.0°C 4.6°F-15.2°C 52% 6.0 mph W9.7 kmh W 10.1 mph16.3 kmh 30.63 in1037.3 mb 0.00 in0.0 mm 0.00 in/hr0.0 mm/hr 0.00 in0.0 mm
05:15 AM 19.5°F-6.9°C 4.3°F-15.4°C 51% 8.1 mph NW13.0 kmh NW 12.1 mph19.5 kmh 30.63 in1037.3 mb 0.00 in0.0 mm 0.00 in/hr0.0 mm/hr 0.00 in0.0 mm
05:10 AM 19.5°F-6.9°C 4.3°F-15.4°C 51% 4.5 mph NNW7.2 kmh NNW 14.1 mph22.7 kmh 30.63 in1037.3 mb 0.00 in0.0 mm 0.00 in/hr0.0 mm/hr 0.00 in0.0 mm
05:00 AM 19.7°F-6.8°C 4.9°F-15.1°C 52% 8.1 mph NW13.0 kmh NW 11.1 mph17.9 kmh 30.62 in1036.9 mb 0.00 in0.0 mm 0.00 in/hr0.0 mm/hr 0.00 in0.0 mm
04:50 AM 19.8°F-6.8°C 5.0°F-15.0°C 52% 4.9 mph NW7.9 kmh NW 10.1 mph16.3 kmh 30.62 in1036.9 mb 0.00 in0.0 mm 0.00 in/hr0.0 mm/hr 0.00 in0.0 mm
04:45 AM 19.9°F-6.7°C 5.1°F-14.9°C 52% 10.2 mph NNW16.4 kmh NNW 15.1 mph24.3 kmh 30.62 in1036.9 mb 0.00 in0.0 mm 0.00 in/hr0.0 mm/hr 0.00 in0.0 mm
04:40 AM 20.0°F-6.7°C 5.2°F-14.9°C 52% 4.3 mph NW6.9 kmh NW 7.1 mph11.4 kmh 30.62 in1036.9 mb 0.00 in0.0 mm 0.00 in/hr0.0 mm/hr 0.00 in0.0 mm
04:30 AM 20.2°F-6.6°C 5.3°F-14.8°C 52% 6.4 mph NW10.3 kmh NW 10.1 mph16.3 kmh 30.62 in1036.9 mb 0.00 in0.0 mm 0.00 in/hr0.0 mm/hr 0.00 in0.0 mm
04:20 AM 20.5°F-6.4°C 5.3°F-14.8°C 51% 7.0 mph NW11.3 kmh NW 9.1 mph14.6 kmh 30.62 in1036.9 mb 0.00 in0.0 mm 0.00 in/hr0.0 mm/hr 0.00 in0.0 mm
04:15 AM 20.7°F-6.3°C 5.4°F-14.8°C 51% 5.0 mph NW8.0 kmh NW 7.1 mph11.4 kmh 30.62 in1036.9 mb 0.00 in0.0 mm 0.00 in/hr0.0 mm/hr 0.00 in0.0 mm
04:10 AM 20.8°F-6.2°C 5.5°F-14.7°C 51% 5.8 mph NW9.3 kmh NW 8.1 mph13.0 kmh 30.61 in1036.6 mb 0.00 in0.0 mm 0.00 in/hr0.0 mm/hr 0.00 in0.0 mm
04:00 AM 20.9°F-6.2°C 6.0°F-14.4°C 52% 11.5 mph NNW18.5 kmh NNW 15.1 mph24.3 kmh 30.61 in1036.6 mb 0.00 in0.0 mm 0.00 in/hr0.0 mm/hr 0.00 in0.0 mm
03:50 AM 21.1°F-6.1°C 6.2°F-14.3°C 52% 5.1 mph W8.2 kmh W 7.1 mph11.4 kmh 30.61 in1036.6 mb 0.00 in0.0 mm 0.00 in/hr0.0 mm/hr 0.00 in0.0 mm
03:45 AM 21.2°F-6.0°C 6.3°F-14.3°C 52% 5.2 mph W8.4 kmh W 9.1 mph14.6 kmh 30.61 in1036.6 mb 0.00 in0.0 mm 0.00 in/hr0.0 mm/hr 0.00 in0.0 mm
03:40 AM 21.3°F-5.9°C 6.4°F-14.2°C 52% 3.5 mph W5.6 kmh W 5.0 mph8.0 kmh 30.61 in1036.6 mb 0.00 in0.0 mm 0.00 in/hr0.0 mm/hr 0.00 in0.0 mm
03:30 AM 21.7°F-5.7°C 6.3°F-14.3°C 51% 2.2 mph WNW3.5 kmh WNW 3.0 mph4.8 kmh 30.61 in1036.6 mb 0.00 in0.0 mm 0.00 in/hr0.0 mm/hr 0.00 in0.0 mm
03:20 AM 22.0°F-5.6°C 7.0°F-13.9°C 52% 3.5 mph WNW5.6 kmh WNW 9.1 mph14.6 kmh 30.60 in1036.2 mb 0.00 in0.0 mm 0.00 in/hr0.0 mm/hr 0.00 in0.0 mm
03:15 AM 22.2°F-5.4°C 7.2°F-13.8°C 52% 2.3 mph W3.7 kmh W 3.0 mph4.8 kmh 30.60 in1036.2 mb 0.00 in0.0 mm 0.00 in/hr0.0 mm/hr 0.00 in0.0 mm
03:10 AM 22.4°F-5.3°C 7.4°F-13.7°C 52% 1.2 mph NW1.9 kmh NW 4.0 mph6.4 kmh 30.59 in1035.9 mb 0.00 in0.0 mm 0.00 in/hr0.0 mm/hr 0.00 in0.0 mm
03:00 AM 22.7°F-5.2°C 7.2°F-13.8°C 51% 1.9 mph W3.1 kmh W -- 30.59 in1035.9 mb 0.00 in0.0 mm 0.00 in/hr0.0 mm/hr 0.00 in0.0 mm
02:50 AM 23.1°F-4.9°C 7.2°F-13.8°C 50% 5.8 mph NW9.3 kmh NW 10.1 mph16.3 kmh 30.58 in1035.6 mb 0.00 in0.0 mm 0.00 in/hr0.0 mm/hr 0.00 in0.0 mm
02:45 AM 23.2°F-4.9°C 7.3°F-13.7°C 50% 9.1 mph WNW14.6 kmh WNW 13.1 mph21.1 kmh 30.58 in1035.6 mb 0.00 in0.0 mm 0.00 in/hr0.0 mm/hr 0.00 in0.0 mm
02:40 AM 23.4°F-4.8°C 7.5°F-13.6°C 50% 6.2 mph WNW10.0 kmh WNW 9.1 mph14.6 kmh 30.57 in1035.2 mb 0.00 in0.0 mm 0.00 in/hr0.0 mm/hr 0.00 in0.0 mm
02:30 AM 23.7°F-4.6°C 7.8°F-13.4°C 50% 6.9 mph NNW11.1 kmh NNW 10.1 mph16.3 kmh 30.57 in1035.2 mb 0.00 in0.0 mm 0.00 in/hr0.0 mm/hr 0.00 in0.0 mm
02:20 AM 23.8°F-4.6°C 8.3°F-13.2°C 51% 6.3 mph NW10.1 kmh NW 10.1 mph16.3 kmh 30.56 in1034.9 mb 0.00 in0.0 mm 0.00 in/hr0.0 mm/hr 0.00 in0.0 mm
02:15 AM 23.9°F-4.5°C 8.8°F-12.9°C 52% 6.2 mph NNW10.0 kmh NNW 12.1 mph19.5 kmh 30.56 in1034.9 mb 0.00 in0.0 mm 0.00 in/hr0.0 mm/hr 0.00 in0.0 mm
02:10 AM 24.0°F-4.4°C 9.3°F-12.6°C 53% 4.2 mph NW6.8 kmh NW 11.1 mph17.9 kmh 30.56 in1034.9 mb 0.00 in0.0 mm 0.00 in/hr0.0 mm/hr 0.00 in0.0 mm
02:00 AM 24.5°F-4.2°C 9.3°F-12.6°C 52% 5.5 mph NW8.9 kmh NW 9.1 mph14.6 kmh 30.55 in1034.5 mb 0.00 in0.0 mm 0.00 in/hr0.0 mm/hr 0.00 in0.0 mm
01:50 AM 24.8°F-4.0°C 9.6°F-12.4°C 52% 7.3 mph NW11.7 kmh NW 10.1 mph16.3 kmh 30.55 in1034.5 mb 0.00 in0.0 mm 0.00 in/hr0.0 mm/hr 0.00 in0.0 mm
01:45 AM 24.8°F-4.0°C 10.1°F-12.2°C 53% 7.7 mph NW12.4 kmh NW 14.1 mph22.7 kmh 30.55 in1034.5 mb 0.00 in0.0 mm 0.00 in/hr0.0 mm/hr 0.00 in0.0 mm
01:40 AM 24.9°F-3.9°C 9.7°F-12.4°C 52% 5.3 mph NNW8.5 kmh NNW 8.1 mph13.0 kmh 30.55 in1034.5 mb 0.00 in0.0 mm 0.00 in/hr0.0 mm/hr 0.00 in0.0 mm
01:30 AM 25.1°F-3.8°C 9.9°F-12.3°C 52% 3.5 mph NW5.6 kmh NW 4.0 mph6.4 kmh 30.55 in1034.5 mb 0.00 in0.0 mm 0.00 in/hr0.0 mm/hr 0.00 in0.0 mm
01:20 AM 25.2°F-3.8°C 10.4°F-12.0°C 53% 5.2 mph NW8.4 kmh NW 10.1 mph16.3 kmh 30.54 in1034.2 mb 0.00 in0.0 mm 0.00 in/hr0.0 mm/hr 0.00 in0.0 mm
01:15 AM 25.1°F-3.8°C 10.4°F-12.0°C 53% 4.3 mph NNW6.9 kmh NNW 7.1 mph11.4 kmh 30.54 in1034.2 mb 0.00 in0.0 mm 0.00 in/hr0.0 mm/hr 0.00 in0.0 mm
01:10 AM 25.2°F-3.8°C 10.8°F-11.8°C 54% 5.3 mph NW8.5 kmh NW 7.1 mph11.4 kmh 30.53 in1033.9 mb 0.00 in0.0 mm 0.00 in/hr0.0 mm/hr 0.00 in0.0 mm
01:00 AM 25.0°F-3.9°C 11.1°F-11.6°C 55% 5.6 mph NW9.0 kmh NW 10.1 mph16.3 kmh 30.53 in1033.9 mb 0.00 in0.0 mm 0.00 in/hr0.0 mm/hr 0.00 in0.0 mm
12:50 AM 24.9°F-3.9°C 11.4°F-11.4°C 56% 1.7 mph NW2.7 kmh NW 4.0 mph6.4 kmh 30.53 in1033.9 mb 0.00 in0.0 mm 0.00 in/hr0.0 mm/hr 0.00 in0.0 mm
12:45 AM 25.0°F-3.9°C 11.5°F-11.4°C 56% 0.9 mph NW1.4 kmh NW 3.0 mph4.8 kmh 30.52 in1033.5 mb 0.00 in0.0 mm 0.00 in/hr0.0 mm/hr 0.00 in0.0 mm
12:40 AM 25.1°F-3.8°C 12.0°F-11.1°C 57% Calm Calm -- 30.52 in1033.5 mb 0.00 in0.0 mm 0.00 in/hr0.0 mm/hr 0.00 in0.0 mm
12:30 AM 25.0°F-3.9°C 11.5°F-11.4°C 56% Calm Calm -- 30.52 in1033.5 mb 0.00 in0.0 mm 0.00 in/hr0.0 mm/hr 0.00 in0.0 mm
12:20 AM 25.1°F-3.8°C 12.0°F-11.1°C 57% Calm Calm -- 30.52 in1033.5 mb 0.00 in0.0 mm 0.00 in/hr0.0 mm/hr 0.00 in0.0 mm
12:15 AM 25.3°F-3.7°C 11.8°F-11.2°C 56% Calm Calm -- 30.52 in1033.5 mb 0.00 in0.0 mm 0.00 in/hr0.0 mm/hr 0.00 in0.0 mm
12:10 AM 25.4°F-3.7°C 11.4°F-11.4°C 55% Calm Calm -- 30.51 in1033.2 mb 0.00 in0.0 mm 0.00 in/hr0.0 mm/hr 0.00 in0.0 mm
12:00 AM 25.7°F-3.5°C 11.7°F-11.3°C 55% Calm Calm -- 30.51 in1033.2 mb 0.00 in0.0 mm 0.00 in/hr0.0 mm/hr 0.00 in0.0 mm